sensor_id;sensor_type;location;lat;lon;timestamp;P1;durP1;ratioP1;P2;durP2;ratioP2
13202;SDS011;6666;51.626;7.530;2023-02-11T00:00:38;30.45;;;15.38;;
13202;SDS011;6666;51.626;7.530;2023-02-11T00:03:07;35.92;;;15.50;;
13202;SDS011;6666;51.626;7.530;2023-02-11T00:05:36;33.88;;;16.13;;
13202;SDS011;6666;51.626;7.530;2023-02-11T00:08:05;34.63;;;15.07;;
13202;SDS011;6666;51.626;7.530;2023-02-11T00:10:33;30.58;;;15.20;;
13202;SDS011;6666;51.626;7.530;2023-02-11T00:13:02;29.27;;;15.45;;
13202;SDS011;6666;51.626;7.530;2023-02-11T00:15:30;33.80;;;16.20;;
13202;SDS011;6666;51.626;7.530;2023-02-11T00:17:58;29.98;;;14.52;;
13202;SDS011;6666;51.626;7.530;2023-02-11T00:20:27;32.42;;;15.10;;
13202;SDS011;6666;51.626;7.530;2023-02-11T00:22:55;32.47;;;15.38;;
13202;SDS011;6666;51.626;7.530;2023-02-11T00:25:25;34.13;;;15.18;;
13202;SDS011;6666;51.626;7.530;2023-02-11T00:27:53;31.95;;;15.15;;
13202;SDS011;6666;51.626;7.530;2023-02-11T00:30:21;33.95;;;15.55;;
13202;SDS011;6666;51.626;7.530;2023-02-11T00:32:50;36.00;;;16.47;;
13202;SDS011;6666;51.626;7.530;2023-02-11T00:35:18;31.17;;;14.82;;
13202;SDS011;6666;51.626;7.530;2023-02-11T00:37:46;28.23;;;14.32;;
13202;SDS011;6666;51.626;7.530;2023-02-11T00:40:14;32.08;;;14.60;;
13202;SDS011;6666;51.626;7.530;2023-02-11T00:42:44;27.83;;;14.48;;
13202;SDS011;6666;51.626;7.530;2023-02-11T00:45:13;33.73;;;15.07;;
13202;SDS011;6666;51.626;7.530;2023-02-11T00:47:41;32.40;;;14.97;;
13202;SDS011;6666;51.626;7.530;2023-02-11T00:50:09;31.93;;;14.30;;
13202;SDS011;6666;51.626;7.530;2023-02-11T00:52:37;27.88;;;13.63;;
13202;SDS011;6666;51.626;7.530;2023-02-11T00:55:07;31.75;;;14.23;;
13202;SDS011;6666;51.626;7.530;2023-02-11T00:57:36;29.38;;;14.18;;
13202;SDS011;6666;51.626;7.530;2023-02-11T01:00:06;33.50;;;14.90;;
13202;SDS011;6666;51.626;7.530;2023-02-11T01:02:36;27.25;;;13.73;;
13202;SDS011;6666;51.626;7.530;2023-02-11T01:05:05;29.08;;;14.30;;
13202;SDS011;6666;51.626;7.530;2023-02-11T01:07:33;30.38;;;14.50;;
13202;SDS011;6666;51.626;7.530;2023-02-11T01:10:02;31.13;;;13.20;;
13202;SDS011;6666;51.626;7.530;2023-02-11T01:12:30;29.90;;;14.00;;
13202;SDS011;6666;51.626;7.530;2023-02-11T01:15:02;29.02;;;13.70;;
13202;SDS011;6666;51.626;7.530;2023-02-11T01:17:33;32.20;;;14.43;;
13202;SDS011;6666;51.626;7.530;2023-02-11T01:20:02;25.35;;;12.80;;
13202;SDS011;6666;51.626;7.530;2023-02-11T01:22:31;28.00;;;13.80;;
13202;SDS011;6666;51.626;7.530;2023-02-11T01:25:03;26.52;;;13.10;;
13202;SDS011;6666;51.626;7.530;2023-02-11T01:27:34;26.90;;;14.10;;
13202;SDS011;6666;51.626;7.530;2023-02-11T01:30:03;28.43;;;13.80;;
13202;SDS011;6666;51.626;7.530;2023-02-11T01:32:34;30.23;;;12.88;;
13202;SDS011;6666;51.626;7.530;2023-02-11T01:35:03;34.53;;;14.30;;
13202;SDS011;6666;51.626;7.530;2023-02-11T01:37:34;30.13;;;13.93;;
13202;SDS011;6666;51.626;7.530;2023-02-11T01:40:03;29.92;;;13.25;;
13202;SDS011;6666;51.626;7.530;2023-02-11T01:42:33;28.40;;;12.50;;
13202;SDS011;6666;51.626;7.530;2023-02-11T01:45:03;27.27;;;13.18;;
13202;SDS011;6666;51.626;7.530;2023-02-11T01:48:12;25.10;;;13.15;;
13202;SDS011;6666;51.626;7.530;2023-02-11T01:50:42;26.92;;;13.48;;
13202;SDS011;6666;51.626;7.530;2023-02-11T01:53:13;25.35;;;12.65;;
13202;SDS011;6666;51.626;7.530;2023-02-11T01:56:00;22.67;;;12.63;;
13202;SDS011;6666;51.626;7.530;2023-02-11T01:58:47;26.98;;;11.70;;
13202;SDS011;6666;51.626;7.530;2023-02-11T02:01:18;23.93;;;11.70;;
13202;SDS011;6666;51.626;7.530;2023-02-11T02:03:53;26.10;;;11.63;;
13202;SDS011;6666;51.626;7.530;2023-02-11T02:06:29;24.52;;;12.50;;
13202;SDS011;6666;51.626;7.530;2023-02-11T02:09:02;24.13;;;11.90;;
13202;SDS011;6666;51.626;7.530;2023-02-11T02:11:35;25.92;;;13.15;;
13202;SDS011;6666;51.626;7.530;2023-02-11T02:14:04;26.27;;;11.98;;
13202;SDS011;6666;51.626;7.530;2023-02-11T02:16:33;24.92;;;12.57;;
13202;SDS011;6666;51.626;7.530;2023-02-11T02:19:16;23.05;;;11.60;;
13202;SDS011;6666;51.626;7.530;2023-02-11T02:25:19;30.90;;;13.35;;
13202;SDS011;6666;51.626;7.530;2023-02-11T02:28:11;23.20;;;11.82;;
13202;SDS011;6666;51.626;7.530;2023-02-11T02:31:05;24.98;;;11.77;;
13202;SDS011;6666;51.626;7.530;2023-02-11T02:33:45;27.90;;;11.60;;
13202;SDS011;6666;51.626;7.530;2023-02-11T02:36:21;26.38;;;11.85;;
13202;SDS011;6666;51.626;7.530;2023-02-11T02:38:56;22.02;;;11.15;;
13202;SDS011;6666;51.626;7.530;2023-02-11T02:41:27;27.40;;;11.90;;
13202;SDS011;6666;51.626;7.530;2023-02-11T02:43:58;25.00;;;11.15;;
13202;SDS011;6666;51.626;7.530;2023-02-11T02:46:28;20.25;;;10.68;;
13202;SDS011;6666;51.626;7.530;2023-02-11T02:48:59;23.90;;;10.75;;
13202;SDS011;6666;51.626;7.530;2023-02-11T02:54:34;24.58;;;11.55;;
13202;SDS011;6666;51.626;7.530;2023-02-11T02:57:29;22.23;;;11.60;;
13202;SDS011;6666;51.626;7.530;2023-02-11T03:00:05;23.55;;;12.10;;
13202;SDS011;6666;51.626;7.530;2023-02-11T03:02:43;23.70;;;11.45;;
13202;SDS011;6666;51.626;7.530;2023-02-11T03:05:29;24.42;;;11.55;;
13202;SDS011;6666;51.626;7.530;2023-02-11T03:08:03;25.00;;;10.65;;
13202;SDS011;6666;51.626;7.530;2023-02-11T03:10:35;24.90;;;10.60;;
13202;SDS011;6666;51.626;7.530;2023-02-11T03:13:08;24.42;;;11.30;;
13202;SDS011;6666;51.626;7.530;2023-02-11T03:15:37;21.55;;;11.07;;
13202;SDS011;6666;51.626;7.530;2023-02-11T03:18:10;18.67;;;10.93;;
13202;SDS011;6666;51.626;7.530;2023-02-11T03:20:43;24.63;;;11.50;;
13202;SDS011;6666;51.626;7.530;2023-02-11T03:23:14;30.13;;;11.40;;
13202;SDS011;6666;51.626;7.530;2023-02-11T03:25:48;23.05;;;12.15;;
13202;SDS011;6666;51.626;7.530;2023-02-11T03:28:20;29.30;;;11.68;;
13202;SDS011;6666;51.626;7.530;2023-02-11T03:30:54;23.27;;;10.48;;
13202;SDS011;6666;51.626;7.530;2023-02-11T03:33:29;20.45;;;11.50;;
13202;SDS011;6666;51.626;7.530;2023-02-11T03:36:06;21.83;;;10.60;;
13202;SDS011;6666;51.626;7.530;2023-02-11T03:38:38;23.38;;;11.02;;
13202;SDS011;6666;51.626;7.530;2023-02-11T03:41:12;23.00;;;11.55;;
13202;SDS011;6666;51.626;7.530;2023-02-11T03:43:43;24.98;;;10.88;;
13202;SDS011;6666;51.626;7.530;2023-02-11T03:46:15;24.20;;;11.60;;
13202;SDS011;6666;51.626;7.530;2023-02-11T03:48:48;22.20;;;11.70;;
13202;SDS011;6666;51.626;7.530;2023-02-11T03:51:20;25.43;;;12.23;;
13202;SDS011;6666;51.626;7.530;2023-02-11T03:53:51;22.60;;;11.77;;
13202;SDS011;6666;51.626;7.530;2023-02-11T03:56:24;24.60;;;11.65;;
13202;SDS011;6666;51.626;7.530;2023-02-11T03:58:54;23.05;;;12.13;;
13202;SDS011;6666;51.626;7.530;2023-02-11T04:01:22;24.80;;;12.23;;
13202;SDS011;6666;51.626;7.530;2023-02-11T04:03:51;28.88;;;12.60;;
13202;SDS011;6666;51.626;7.530;2023-02-11T04:06:20;26.08;;;12.32;;
13202;SDS011;6666;51.626;7.530;2023-02-11T04:08:49;22.70;;;11.48;;
13202;SDS011;6666;51.626;7.530;2023-02-11T04:11:17;26.75;;;13.15;;
13202;SDS011;6666;51.626;7.530;2023-02-11T04:13:45;31.58;;;13.00;;
13202;SDS011;6666;51.626;7.530;2023-02-11T04:16:13;24.85;;;12.57;;
13202;SDS011;6666;51.626;7.530;2023-02-11T04:18:42;29.65;;;13.07;;
13202;SDS011;6666;51.626;7.530;2023-02-11T04:21:10;26.53;;;13.40;;
13202;SDS011;6666;51.626;7.530;2023-02-11T04:23:40;26.23;;;13.03;;
13202;SDS011;6666;51.626;7.530;2023-02-11T04:26:08;29.77;;;13.60;;
13202;SDS011;6666;51.626;7.530;2023-02-11T04:28:36;23.20;;;13.23;;
13202;SDS011;6666;51.626;7.530;2023-02-11T04:31:04;30.67;;;13.63;;
13202;SDS011;6666;51.626;7.530;2023-02-11T04:33:33;27.38;;;13.23;;
13202;SDS011;6666;51.626;7.530;2023-02-11T04:36:01;29.00;;;14.30;;
13202;SDS011;6666;51.626;7.530;2023-02-11T04:38:30;30.93;;;13.63;;
13202;SDS011;6666;51.626;7.530;2023-02-11T04:40:59;31.60;;;15.00;;
13202;SDS011;6666;51.626;7.530;2023-02-11T04:43:28;27.63;;;13.30;;
13202;SDS011;6666;51.626;7.530;2023-02-11T04:45:56;25.60;;;14.70;;
13202;SDS011;6666;51.626;7.530;2023-02-11T04:48:25;28.50;;;14.68;;
13202;SDS011;6666;51.626;7.530;2023-02-11T04:50:53;31.50;;;14.20;;
13202;SDS011;6666;51.626;7.530;2023-02-11T04:53:21;29.77;;;14.20;;
13202;SDS011;6666;51.626;7.530;2023-02-11T04:55:50;30.40;;;14.25;;
13202;SDS011;6666;51.626;7.530;2023-02-11T04:58:20;26.83;;;14.60;;
13202;SDS011;6666;51.626;7.530;2023-02-11T05:00:49;33.28;;;15.32;;
13202;SDS011;6666;51.626;7.530;2023-02-11T05:03:18;34.63;;;15.80;;
13202;SDS011;6666;51.626;7.530;2023-02-11T05:05:46;27.00;;;14.73;;
13202;SDS011;6666;51.626;7.530;2023-02-11T05:08:15;34.45;;;15.25;;
13202;SDS011;6666;51.626;7.530;2023-02-11T05:10:44;29.75;;;15.90;;
13202;SDS011;6666;51.626;7.530;2023-02-11T05:13:13;31.83;;;14.80;;
13202;SDS011;6666;51.626;7.530;2023-02-11T05:15:43;29.58;;;15.20;;
13202;SDS011;6666;51.626;7.530;2023-02-11T05:18:11;29.60;;;15.50;;
13202;SDS011;6666;51.626;7.530;2023-02-11T05:20:41;30.87;;;15.30;;
13202;SDS011;6666;51.626;7.530;2023-02-11T05:23:09;33.72;;;15.15;;
13202;SDS011;6666;51.626;7.530;2023-02-11T05:25:37;33.03;;;15.88;;
13202;SDS011;6666;51.626;7.530;2023-02-11T05:28:06;30.63;;;14.00;;
13202;SDS011;6666;51.626;7.530;2023-02-11T05:30:34;33.22;;;16.17;;
13202;SDS011;6666;51.626;7.530;2023-02-11T05:33:04;31.38;;;16.27;;
13202;SDS011;6666;51.626;7.530;2023-02-11T05:35:32;32.38;;;15.80;;
13202;SDS011;6666;51.626;7.530;2023-02-11T05:38:00;31.63;;;16.33;;
13202;SDS011;6666;51.626;7.530;2023-02-11T05:40:29;31.75;;;16.60;;
13202;SDS011;6666;51.626;7.530;2023-02-11T05:42:57;32.13;;;16.02;;
13202;SDS011;6666;51.626;7.530;2023-02-11T05:45:25;30.05;;;16.35;;
13202;SDS011;6666;51.626;7.530;2023-02-11T05:47:53;33.97;;;15.85;;
13202;SDS011;6666;51.626;7.530;2023-02-11T05:50:23;34.45;;;17.13;;
13202;SDS011;6666;51.626;7.530;2023-02-11T05:52:52;36.22;;;16.17;;
13202;SDS011;6666;51.626;7.530;2023-02-11T05:55:20;39.40;;;17.60;;
13202;SDS011;6666;51.626;7.530;2023-02-11T05:57:48;33.70;;;16.73;;
13202;SDS011;6666;51.626;7.530;2023-02-11T06:00:17;35.80;;;16.80;;
13202;SDS011;6666;51.626;7.530;2023-02-11T06:02:46;34.03;;;16.80;;
13202;SDS011;6666;51.626;7.530;2023-02-11T06:05:14;36.20;;;17.07;;
13202;SDS011;6666;51.626;7.530;2023-02-11T06:07:44;36.53;;;17.20;;
13202;SDS011;6666;51.626;7.530;2023-02-11T06:10:12;36.15;;;17.67;;
13202;SDS011;6666;51.626;7.530;2023-02-11T06:12:41;36.38;;;16.70;;
13202;SDS011;6666;51.626;7.530;2023-02-11T06:15:10;36.10;;;17.65;;
13202;SDS011;6666;51.626;7.530;2023-02-11T06:17:38;36.55;;;17.80;;
13202;SDS011;6666;51.626;7.530;2023-02-11T06:20:07;35.85;;;18.27;;
13202;SDS011;6666;51.626;7.530;2023-02-11T06:22:36;44.42;;;17.40;;
13202;SDS011;6666;51.626;7.530;2023-02-11T06:25:06;38.33;;;18.10;;
13202;SDS011;6666;51.626;7.530;2023-02-11T06:27:36;42.35;;;18.42;;
13202;SDS011;6666;51.626;7.530;2023-02-11T06:30:05;42.90;;;18.90;;
13202;SDS011;6666;51.626;7.530;2023-02-11T06:32:34;37.47;;;18.58;;
13202;SDS011;6666;51.626;7.530;2023-02-11T06:35:11;35.65;;;17.48;;
13202;SDS011;6666;51.626;7.530;2023-02-11T06:37:40;40.58;;;17.95;;
13202;SDS011;6666;51.626;7.530;2023-02-11T06:40:11;34.13;;;17.63;;
13202;SDS011;6666;51.626;7.530;2023-02-11T06:42:39;38.63;;;18.40;;
13202;SDS011;6666;51.626;7.530;2023-02-11T06:45:08;42.95;;;18.88;;
13202;SDS011;6666;51.626;7.530;2023-02-11T06:47:38;52.33;;;19.30;;
13202;SDS011;6666;51.626;7.530;2023-02-11T06:50:08;40.13;;;17.75;;
13202;SDS011;6666;51.626;7.530;2023-02-11T06:52:39;39.95;;;18.20;;
13202;SDS011;6666;51.626;7.530;2023-02-11T06:55:07;43.05;;;19.38;;
13202;SDS011;6666;51.626;7.530;2023-02-11T06:57:37;42.00;;;18.08;;
13202;SDS011;6666;51.626;7.530;2023-02-11T07:00:06;38.08;;;19.27;;
13202;SDS011;6666;51.626;7.530;2023-02-11T07:02:36;42.03;;;20.20;;
13202;SDS011;6666;51.626;7.530;2023-02-11T07:05:04;39.40;;;17.92;;
13202;SDS011;6666;51.626;7.530;2023-02-11T07:07:33;52.28;;;19.52;;
13202;SDS011;6666;51.626;7.530;2023-02-11T07:10:02;48.45;;;19.48;;
13202;SDS011;6666;51.626;7.530;2023-02-11T07:12:31;45.90;;;19.35;;
13202;SDS011;6666;51.626;7.530;2023-02-11T07:15:01;41.17;;;18.70;;
13202;SDS011;6666;51.626;7.530;2023-02-11T07:17:29;43.57;;;20.03;;
13202;SDS011;6666;51.626;7.530;2023-02-11T07:19:57;41.03;;;19.37;;
13202;SDS011;6666;51.626;7.530;2023-02-11T07:22:26;41.97;;;19.90;;
13202;SDS011;6666;51.626;7.530;2023-02-11T07:24:54;52.45;;;20.50;;
13202;SDS011;6666;51.626;7.530;2023-02-11T07:27:22;49.20;;;20.60;;
13202;SDS011;6666;51.626;7.530;2023-02-11T07:29:50;44.28;;;19.95;;
13202;SDS011;6666;51.626;7.530;2023-02-11T07:32:20;64.25;;;21.40;;
13202;SDS011;6666;51.626;7.530;2023-02-11T07:34:48;44.72;;;20.17;;
13202;SDS011;6666;51.626;7.530;2023-02-11T07:37:17;42.50;;;19.83;;
13202;SDS011;6666;51.626;7.530;2023-02-11T07:39:46;48.70;;;19.98;;
13202;SDS011;6666;51.626;7.530;2023-02-11T07:42:14;56.10;;;21.52;;
13202;SDS011;6666;51.626;7.530;2023-02-11T07:44:43;53.75;;;21.50;;
13202;SDS011;6666;51.626;7.530;2023-02-11T07:47:15;58.53;;;23.40;;
13202;SDS011;6666;51.626;7.530;2023-02-11T07:49:45;48.83;;;20.80;;
13202;SDS011;6666;51.626;7.530;2023-02-11T07:52:14;57.45;;;21.90;;
13202;SDS011;6666;51.626;7.530;2023-02-11T07:54:42;55.00;;;22.35;;
13202;SDS011;6666;51.626;7.530;2023-02-11T07:57:10;53.65;;;21.80;;
13202;SDS011;6666;51.626;7.530;2023-02-11T07:59:39;55.60;;;22.93;;
13202;SDS011;6666;51.626;7.530;2023-02-11T08:02:07;52.30;;;22.40;;
13202;SDS011;6666;51.626;7.530;2023-02-11T08:04:36;46.33;;;21.02;;
13202;SDS011;6666;51.626;7.530;2023-02-11T08:07:05;55.63;;;22.50;;
13202;SDS011;6666;51.626;7.530;2023-02-11T08:09:34;51.00;;;21.85;;
13202;SDS011;6666;51.626;7.530;2023-02-11T08:12:02;53.15;;;22.60;;
13202;SDS011;6666;51.626;7.530;2023-02-11T08:14:30;55.17;;;22.35;;
13202;SDS011;6666;51.626;7.530;2023-02-11T08:16:59;59.28;;;22.27;;
13202;SDS011;6666;51.626;7.530;2023-02-11T08:19:27;50.92;;;22.50;;
13202;SDS011;6666;51.626;7.530;2023-02-11T08:21:55;53.55;;;23.45;;
13202;SDS011;6666;51.626;7.530;2023-02-11T08:24:26;49.88;;;22.50;;
13202;SDS011;6666;51.626;7.530;2023-02-11T08:26:54;54.80;;;23.63;;
13202;SDS011;6666;51.626;7.530;2023-02-11T08:29:23;55.70;;;23.55;;
13202;SDS011;6666;51.626;7.530;2023-02-11T08:31:51;61.00;;;22.27;;
13202;SDS011;6666;51.626;7.530;2023-02-11T08:34:19;60.15;;;22.00;;
13202;SDS011;6666;51.626;7.530;2023-02-11T08:36:48;59.30;;;22.63;;
13202;SDS011;6666;51.626;7.530;2023-02-11T08:39:17;55.70;;;22.33;;
13202;SDS011;6666;51.626;7.530;2023-02-11T08:41:48;64.00;;;23.13;;
13202;SDS011;6666;51.626;7.530;2023-02-11T08:44:18;61.78;;;23.20;;
13202;SDS011;6666;51.626;7.530;2023-02-11T08:46:47;56.67;;;22.95;;
13202;SDS011;6666;51.626;7.530;2023-02-11T08:49:16;50.38;;;22.75;;
13202;SDS011;6666;51.626;7.530;2023-02-11T08:51:45;51.78;;;22.48;;
13202;SDS011;6666;51.626;7.530;2023-02-11T08:54:14;55.83;;;21.50;;
13202;SDS011;6666;51.626;7.530;2023-02-11T08:56:42;60.42;;;22.00;;
13202;SDS011;6666;51.626;7.530;2023-02-11T08:59:13;59.33;;;22.98;;
13202;SDS011;6666;51.626;7.530;2023-02-11T09:01:43;52.08;;;21.20;;
13202;SDS011;6666;51.626;7.530;2023-02-11T09:04:12;63.03;;;22.77;;
13202;SDS011;6666;51.626;7.530;2023-02-11T09:06:41;56.50;;;21.55;;
13202;SDS011;6666;51.626;7.530;2023-02-11T09:09:10;57.63;;;22.55;;
13202;SDS011;6666;51.626;7.530;2023-02-11T09:11:40;53.67;;;21.63;;
13202;SDS011;6666;51.626;7.530;2023-02-11T09:14:15;62.47;;;22.25;;
13202;SDS011;6666;51.626;7.530;2023-02-11T09:16:45;53.73;;;22.33;;
13202;SDS011;6666;51.626;7.530;2023-02-11T09:19:14;53.38;;;22.63;;
13202;SDS011;6666;51.626;7.530;2023-02-11T09:21:42;56.17;;;21.98;;
13202;SDS011;6666;51.626;7.530;2023-02-11T09:24:11;58.97;;;21.73;;
13202;SDS011;6666;51.626;7.530;2023-02-11T09:26:39;58.70;;;21.92;;
13202;SDS011;6666;51.626;7.530;2023-02-11T09:29:08;56.20;;;20.60;;
13202;SDS011;6666;51.626;7.530;2023-02-11T09:31:38;50.25;;;21.75;;
13202;SDS011;6666;51.626;7.530;2023-02-11T09:34:07;51.65;;;22.35;;
13202;SDS011;6666;51.626;7.530;2023-02-11T09:36:36;55.05;;;21.73;;
13202;SDS011;6666;51.626;7.530;2023-02-11T09:39:07;56.15;;;22.27;;
13202;SDS011;6666;51.626;7.530;2023-02-11T09:41:41;54.72;;;21.92;;
13202;SDS011;6666;51.626;7.530;2023-02-11T09:44:31;48.80;;;20.98;;
13202;SDS011;6666;51.626;7.530;2023-02-11T09:47:02;52.17;;;22.17;;
13202;SDS011;6666;51.626;7.530;2023-02-11T09:49:34;58.47;;;21.67;;
13202;SDS011;6666;51.626;7.530;2023-02-11T09:52:07;51.60;;;21.27;;
13202;SDS011;6666;51.626;7.530;2023-02-11T09:54:48;59.25;;;23.27;;
13202;SDS011;6666;51.626;7.530;2023-02-11T09:57:22;54.70;;;20.95;;
13202;SDS011;6666;51.626;7.530;2023-02-11T09:59:54;51.78;;;21.23;;
13202;SDS011;6666;51.626;7.530;2023-02-11T10:02:26;54.90;;;22.20;;
13202;SDS011;6666;51.626;7.530;2023-02-11T10:05:12;64.38;;;24.70;;
13202;SDS011;6666;51.626;7.530;2023-02-11T10:07:54;53.73;;;23.40;;
13202;SDS011;6666;51.626;7.530;2023-02-11T10:10:32;59.97;;;22.50;;
13202;SDS011;6666;51.626;7.530;2023-02-11T10:13:21;59.28;;;23.08;;
13202;SDS011;6666;51.626;7.530;2023-02-11T10:16:02;58.88;;;22.60;;
13202;SDS011;6666;51.626;7.530;2023-02-11T10:18:51;51.10;;;22.30;;
13202;SDS011;6666;51.626;7.530;2023-02-11T10:21:47;58.40;;;23.20;;
13202;SDS011;6666;51.626;7.530;2023-02-11T10:24:24;55.63;;;22.38;;
13202;SDS011;6666;51.626;7.530;2023-02-11T10:26:54;59.97;;;23.63;;
13202;SDS011;6666;51.626;7.530;2023-02-11T10:29:25;57.97;;;22.80;;
13202;SDS011;6666;51.626;7.530;2023-02-11T10:32:00;57.53;;;22.95;;
13202;SDS011;6666;51.626;7.530;2023-02-11T10:34:35;52.28;;;23.75;;
13202;SDS011;6666;51.626;7.530;2023-02-11T10:37:07;54.35;;;22.85;;
13202;SDS011;6666;51.626;7.530;2023-02-11T10:39:39;60.22;;;23.75;;
13202;SDS011;6666;51.626;7.530;2023-02-11T10:42:08;63.88;;;24.25;;
13202;SDS011;6666;51.626;7.530;2023-02-11T10:44:40;58.25;;;22.67;;
13202;SDS011;6666;51.626;7.530;2023-02-11T10:47:24;51.03;;;23.17;;
13202;SDS011;6666;51.626;7.530;2023-02-11T10:49:56;51.70;;;21.83;;
13202;SDS011;6666;51.626;7.530;2023-02-11T10:52:29;52.10;;;22.27;;
13202;SDS011;6666;51.626;7.530;2023-02-11T10:54:59;49.63;;;22.40;;
13202;SDS011;6666;51.626;7.530;2023-02-11T10:57:30;47.33;;;22.48;;
13202;SDS011;6666;51.626;7.530;2023-02-11T11:00:04;54.93;;;22.80;;
13202;SDS011;6666;51.626;7.530;2023-02-11T11:02:51;56.85;;;23.02;;
13202;SDS011;6666;51.626;7.530;2023-02-11T11:05:25;51.90;;;23.30;;
13202;SDS011;6666;51.626;7.530;2023-02-11T11:07:57;58.83;;;22.90;;
13202;SDS011;6666;51.626;7.530;2023-02-11T11:10:28;58.13;;;23.17;;
13202;SDS011;6666;51.626;7.530;2023-02-11T11:13:28;56.30;;;22.70;;
13202;SDS011;6666;51.626;7.530;2023-02-11T11:16:08;57.78;;;23.85;;
13202;SDS011;6666;51.626;7.530;2023-02-11T11:18:48;62.85;;;23.80;;
13202;SDS011;6666;51.626;7.530;2023-02-11T11:21:20;52.80;;;23.90;;
13202;SDS011;6666;51.626;7.530;2023-02-11T11:23:54;63.20;;;24.77;;
13202;SDS011;6666;51.626;7.530;2023-02-11T11:26:24;56.05;;;22.52;;
13202;SDS011;6666;51.626;7.530;2023-02-11T11:28:57;60.28;;;24.05;;
13202;SDS011;6666;51.626;7.530;2023-02-11T11:31:29;55.92;;;23.50;;
13202;SDS011;6666;51.626;7.530;2023-02-11T11:34:02;56.63;;;24.05;;
13202;SDS011;6666;51.626;7.530;2023-02-11T11:36:48;58.67;;;23.23;;
13202;SDS011;6666;51.626;7.530;2023-02-11T11:39:19;52.10;;;22.00;;
13202;SDS011;6666;51.626;7.530;2023-02-11T11:41:54;56.10;;;24.05;;
13202;SDS011;6666;51.626;7.530;2023-02-11T11:44:28;55.83;;;23.08;;
13202;SDS011;6666;51.626;7.530;2023-02-11T11:47:06;56.72;;;23.63;;
13202;SDS011;6666;51.626;7.530;2023-02-11T11:49:44;57.53;;;23.17;;
13202;SDS011;6666;51.626;7.530;2023-02-11T11:52:25;57.35;;;25.30;;
13202;SDS011;6666;51.626;7.530;2023-02-11T11:55:04;61.28;;;23.58;;
13202;SDS011;6666;51.626;7.530;2023-02-11T11:57:39;60.33;;;25.25;;
13202;SDS011;6666;51.626;7.530;2023-02-11T12:00:13;64.03;;;24.83;;
13202;SDS011;6666;51.626;7.530;2023-02-11T12:03:05;52.60;;;24.63;;
13202;SDS011;6666;51.626;7.530;2023-02-11T12:05:57;51.38;;;24.00;;
13202;SDS011;6666;51.626;7.530;2023-02-11T12:08:39;58.10;;;24.30;;
13202;SDS011;6666;51.626;7.530;2023-02-11T12:11:16;56.80;;;24.60;;
13202;SDS011;6666;51.626;7.530;2023-02-11T12:13:54;50.97;;;22.13;;
13202;SDS011;6666;51.626;7.530;2023-02-11T12:16:35;58.45;;;23.35;;
13202;SDS011;6666;51.626;7.530;2023-02-11T12:22:09;54.53;;;23.55;;
13202;SDS011;6666;51.626;7.530;2023-02-11T12:24:48;53.50;;;23.13;;
13202;SDS011;6666;51.626;7.530;2023-02-11T12:27:34;53.47;;;24.85;;
13202;SDS011;6666;51.626;7.530;2023-02-11T12:30:34;55.78;;;24.67;;
13202;SDS011;6666;51.626;7.530;2023-02-11T12:33:16;54.15;;;24.70;;
13202;SDS011;6666;51.626;7.530;2023-02-11T12:35:53;52.85;;;23.92;;
13202;SDS011;6666;51.626;7.530;2023-02-11T12:38:31;55.30;;;23.80;;
13202;SDS011;6666;51.626;7.530;2023-02-11T12:41:16;51.17;;;23.13;;
13202;SDS011;6666;51.626;7.530;2023-02-11T12:44:08;45.87;;;21.83;;
13202;SDS011;6666;51.626;7.530;2023-02-11T12:46:42;39.75;;;19.75;;
13202;SDS011;6666;51.626;7.530;2023-02-11T12:49:25;49.45;;;23.05;;
13202;SDS011;6666;51.626;7.530;2023-02-11T12:52:09;50.70;;;22.52;;
13202;SDS011;6666;51.626;7.530;2023-02-11T12:54:51;49.95;;;21.80;;
13202;SDS011;6666;51.626;7.530;2023-02-11T12:57:25;46.40;;;21.27;;
13202;SDS011;6666;51.626;7.530;2023-02-11T12:59:57;45.17;;;21.73;;
13202;SDS011;6666;51.626;7.530;2023-02-11T13:02:32;41.42;;;20.83;;
13202;SDS011;6666;51.626;7.530;2023-02-11T13:05:11;53.33;;;22.50;;
13202;SDS011;6666;51.626;7.530;2023-02-11T13:07:50;45.72;;;19.88;;
13202;SDS011;6666;51.626;7.530;2023-02-11T13:10:24;45.03;;;19.13;;
13202;SDS011;6666;51.626;7.530;2023-02-11T13:12:56;43.08;;;20.05;;
13202;SDS011;6666;51.626;7.530;2023-02-11T13:15:46;48.03;;;20.83;;
13202;SDS011;6666;51.626;7.530;2023-02-11T13:21:17;46.47;;;20.63;;
13202;SDS011;6666;51.626;7.530;2023-02-11T13:24:02;45.10;;;20.85;;
13202;SDS011;6666;51.626;7.530;2023-02-11T13:26:38;45.92;;;20.45;;
13202;SDS011;6666;51.626;7.530;2023-02-11T13:29:17;44.25;;;19.40;;
13202;SDS011;6666;51.626;7.530;2023-02-11T13:31:54;43.88;;;20.15;;
13202;SDS011;6666;51.626;7.530;2023-02-11T13:37:21;43.93;;;19.73;;
13202;SDS011;6666;51.626;7.530;2023-02-11T13:39:56;46.05;;;20.13;;
13202;SDS011;6666;51.626;7.530;2023-02-11T13:42:26;48.38;;;20.17;;
13202;SDS011;6666;51.626;7.530;2023-02-11T13:44:56;46.28;;;20.90;;
13202;SDS011;6666;51.626;7.530;2023-02-11T13:47:25;40.05;;;20.65;;
13202;SDS011;6666;51.626;7.530;2023-02-11T13:49:57;40.40;;;19.30;;
13202;SDS011;6666;51.626;7.530;2023-02-11T13:52:28;44.13;;;19.70;;
13202;SDS011;6666;51.626;7.530;2023-02-11T13:55:01;39.92;;;18.80;;
13202;SDS011;6666;51.626;7.530;2023-02-11T13:57:36;35.90;;;18.97;;
13202;SDS011;6666;51.626;7.530;2023-02-11T14:03:28;37.25;;;18.05;;
13202;SDS011;6666;51.626;7.530;2023-02-11T14:06:21;38.60;;;16.90;;
13202;SDS011;6666;51.626;7.530;2023-02-11T14:12:24;43.53;;;19.23;;
13202;SDS011;6666;51.626;7.530;2023-02-11T14:14:59;46.05;;;18.75;;
13202;SDS011;6666;51.626;7.530;2023-02-11T14:17:43;39.80;;;19.25;;
13202;SDS011;6666;51.626;7.530;2023-02-11T14:23:23;38.15;;;18.73;;
13202;SDS011;6666;51.626;7.530;2023-02-11T14:25:57;37.92;;;17.73;;
13202;SDS011;6666;51.626;7.530;2023-02-11T14:28:38;39.75;;;19.00;;
13202;SDS011;6666;51.626;7.530;2023-02-11T14:31:12;38.75;;;17.45;;
13202;SDS011;6666;51.626;7.530;2023-02-11T14:36:38;40.92;;;18.92;;
13202;SDS011;6666;51.626;7.530;2023-02-11T14:39:20;35.03;;;17.48;;
13202;SDS011;6666;51.626;7.530;2023-02-11T14:41:57;41.78;;;18.42;;
13202;SDS011;6666;51.626;7.530;2023-02-11T14:44:29;45.65;;;21.35;;
13202;SDS011;6666;51.626;7.530;2023-02-11T14:46:59;41.67;;;19.00;;
13202;SDS011;6666;51.626;7.530;2023-02-11T14:49:28;41.90;;;18.50;;
13202;SDS011;6666;51.626;7.530;2023-02-11T14:52:03;37.67;;;18.45;;
13202;SDS011;6666;51.626;7.530;2023-02-11T14:54:42;38.42;;;17.70;;
13202;SDS011;6666;51.626;7.530;2023-02-11T14:57:13;42.42;;;17.65;;
13202;SDS011;6666;51.626;7.530;2023-02-11T14:59:51;36.63;;;17.20;;
13202;SDS011;6666;51.626;7.530;2023-02-11T15:02:28;32.67;;;17.08;;
13202;SDS011;6666;51.626;7.530;2023-02-11T15:05:12;38.85;;;16.83;;
13202;SDS011;6666;51.626;7.530;2023-02-11T15:07:47;34.45;;;16.75;;
13202;SDS011;6666;51.626;7.530;2023-02-11T15:10:17;34.83;;;15.00;;
13202;SDS011;6666;51.626;7.530;2023-02-11T15:12:50;36.28;;;15.95;;
13202;SDS011;6666;51.626;7.530;2023-02-11T15:15:18;32.60;;;16.38;;
13202;SDS011;6666;51.626;7.530;2023-02-11T15:17:47;30.92;;;16.35;;
13202;SDS011;6666;51.626;7.530;2023-02-11T15:20:17;31.45;;;16.08;;
13202;SDS011;6666;51.626;7.530;2023-02-11T15:22:54;36.90;;;16.65;;
13202;SDS011;6666;51.626;7.530;2023-02-11T15:25:24;36.10;;;15.88;;
13202;SDS011;6666;51.626;7.530;2023-02-11T15:27:54;34.33;;;15.53;;
13202;SDS011;6666;51.626;7.530;2023-02-11T15:30:28;41.50;;;17.95;;
13202;SDS011;6666;51.626;7.530;2023-02-11T15:33:00;37.28;;;17.30;;